KBTL/BTL METAR and TAF weather

Enter ICAO airport designator
Station Type Date Time Source
KBTL METAR 2020/12/06 01:53 UTC NOAA

KBTL 060153Z 00000KT 10SM CLR M04/M07 A3012 RMK AO2 SLP200 T10441072 $


Station Type Date Time Source
KBTL Decoded METAR 2020/12/06 01:53 UTC NOAA

W.K.KELLOGG REGIONAL AIRPORT, MI, United States (KBTL) 42-18N 085-15W 290M
Dec 05, 2020 - 08:53 PM EST / 2020.12.06 0153 UTC
Wind: Calm:0
Visibility: 10 mile(s):0
Sky conditions: clear
Temperature: 24.1 F (-4.4 C)
Dew Point: 19.0 F (-7.2 C)
Relative Humidity: 80%
Pressure (altimeter): 30.12 in. Hg (1019 hPa)
ob: KBTL 060153Z 00000KT 10SM CLR M04/M07 A3012 RMK AO2 SLP200 T10441072
cycle: 2

Station Type Date Time Source
KBTL TAF 2020/12/05 18:27 UTC NOAA

TAF KBTL 051725Z 0518/0618 33006KT P6SM SCT030
FM052000 34006KT P6SM BKN035

Example: see airport list